Terminal Aerodrome Forecast
Issued by NWS

Home | Current Version | Previous Version | Text Only | Print | Product List | Glossary On
Versions: 1 2 3 4 5 6 7 8 9 10 11 12 13 14
000
FTUS43 KAPX 300539
TAFPLN
TAF
KPLN 300539Z 3006/0106 00000KT P6SM OVC080
     FM301200 VRB03KT P6SM SCT025 OVC120
     FM301700 02006KT P6SM VCSH BKN035 OVC080=

USA.gov is the U.S. government's official web portal to all federal, state and local government web resources and services.